Silver Peak Trail, Santa Catalina Island Weather observations

Data are for 10 minute period ending at time listed.
 Day   Time   Solar   Ave.   Ave.  Ave.  Vector    Max.   Stn.    Total
  of    of     Rad.   Air    Rel.  Wind   Wind     Wind   Baro.  Precip.
Year   Day            Temp.  Hum.  Speed  Dir.     Gust   Pres.         
2015   (PST)   W/m2    F      %     mph   deg.      mph    mb.     in.  
------------------------------------------------------------------------
  56   16:30  272.0    63   66.8     6    215.0     9.0    999.0   0.00  
  56   16:40  239.0    63   65.8     5    221.2     7.8    999.0   0.00  
  56   16:50  204.0    62   65.3     4    240.4     7.8    999.0   0.00  
  56   17:00  170.0    59   70.0     4    319.2     6.0    999.0   0.00  
  56   17:10  137.0    56   78.7     4    334.2     5.4    999.0   0.00  
  56   17:20  105.0    58   62.0     4    281.6     7.8    999.0   0.00  
  56   17:30   75.0    60   68.1     6    214.5     8.4    999.0   0.00  
  56   17:40   47.0    58   74.0     6    214.5     9.6    999.0   0.00  
  56   17:50   23.0    57   72.4     4    225.7     7.2    999.0   0.00  
  56   18:00    5.0    58   48.4     4    232.6     5.4    999.0   0.00  
  56   18:10    1.0    59   37.8     4    253.3     4.8    999.0   0.00  
  56   18:20    0.0    58   38.7     3    263.2     4.2    999.0   0.00  
  56   18:30    0.0    58   41.8     4    238.5     5.4    999.0   0.00  
  56   18:40    0.0    58   36.9     4    258.8     4.8    999.0   0.00  
  56   18:50    0.0    58   35.4     4    293.9     6.0    999.0   0.00  
  56   19:00    0.0    58   37.0     4    323.3     6.0    999.0   0.00  
  56   19:10    0.0    58   36.6     2    232.2     3.6    999.0   0.00  
  56   19:20    0.0    57   39.6     3    237.6     5.4    999.0   0.00  
  56   19:30    0.0    58   38.2     2    347.0     4.8    999.0   0.00  
  56   19:40    0.0    57   40.7     3    293.7     6.6    999.0   0.00  
  56   19:50    0.0    58   39.2     4    330.0     5.4    999.0   0.00  
  56   20:00    0.0    58   38.3     4    233.2     5.4    999.0   0.00  
  56   20:10    0.0    57   39.6     4    235.3     5.4    999.0   0.00  
  56   20:20    0.0    58   39.0     4    296.8     6.0    999.0   0.00  
  56   20:30    0.0    57   40.8     5    326.9     7.2    999.0   0.00  
  56   20:40    0.0    57   41.2     6    332.3     7.8    999.0   0.00  
  56   20:50    0.0    58   40.4     6    324.9     7.8    999.0   0.00  
  56   21:00    0.0    58   39.3     4    314.5     7.8    999.0   0.00  
  56   21:10    0.0    58   39.2     4    244.7     4.8    999.0   0.00  
  56   21:20    0.0    58   39.8     4    240.4     6.0    999.0   0.00  
  56   21:30    0.0    58   39.5     5    234.0     7.2    999.0   0.00  
  56   21:40    0.0    58   39.3     4    269.8     7.8    999.0   0.00  
  56   21:50    0.0    57   39.5     7    353.4     9.6    999.0   0.00  
  56   22:00    0.0    58   39.4     5    317.2     7.2    999.0   0.00  
  56   22:10    0.0    58   39.0     6    236.2     7.8    999.0   0.00  
  56   22:20    0.0    58   39.3     5    231.9     7.2    999.0   0.00  
  56   22:30    0.0    59   38.0     4    230.3     6.0    999.0   0.00  
  56   22:40    0.0    58   38.4     4    224.7     5.4    999.0   0.00  
  56   22:50    0.0    59   37.2     2    225.7     3.6    999.0   0.00  
  56   23:00    0.0    58   37.4     2    314.1     3.6    999.0   0.00  
  56   23:10    0.0    58   38.0     3     22.7     3.6    999.0   0.00  
  56   23:20    0.0    58   38.7     1     45.8     3.0    999.0   0.00  
  56   23:30    0.0    58   38.8     2     21.6     3.0    999.0   0.00  
  56   23:40    0.0    58   39.0     3      4.2     4.2    999.0   0.00  
  56   23:50    0.0    58   39.3     3    317.9     3.6    999.0   0.00  
  57    0:00    0.0    57   39.2     3    238.8     4.2    999.0   0.00  
  57    0:10    0.0    56   40.0     2    200.8     3.0    999.0   0.00  
  57    0:20    0.0    56   40.2     2    149.9     3.0    999.0   0.00  
  57    0:30    0.0    56   39.7     1     11.9     1.8    999.0   0.00  
  57    0:40    0.0    56   40.3     3    156.1     3.6    999.0   0.00  
  57    0:50    0.0    57   39.6     3    144.8     4.2    999.0   0.00  
  57    1:00    0.0    57   39.5     2    126.6     4.2    999.0   0.00  
  57    1:10    0.0    57   39.2     2    190.4     4.8    999.0   0.00  
  57    1:20    0.0    58   38.0     3    247.6     4.2    999.0   0.00  
  57    1:30    0.0    57   39.1     3    195.8     4.8    999.0   0.00  
  57    1:40    0.0    57   39.5     3    191.4     4.8    999.0   0.00  
  57    1:50    0.0    56   40.0     6    205.6     7.8    999.0   0.00  
  57    2:00    0.0    56   41.3     7    207.3     7.8    999.0   0.00  
  57    2:10    0.0    55   41.2     5    188.5     6.0    999.0   0.00  
  57    2:20    0.0    56   41.0     5    169.3     6.6    999.0   0.00  
  57    2:30    0.0    56   40.5     4    152.4     6.6    999.0   0.00  
  57    2:40    0.0    56   40.8     4     36.9     8.4    999.0   0.00  
  57    2:50    0.0    54   45.2    10     16.2    11.3    999.0   0.00  
  57    3:00    0.0    54   45.8     8    211.5    11.9    999.0   0.00  
  57    3:10    0.0    55   45.1     8    181.6    11.3    999.0   0.00  
  57    3:20    0.0    55   42.9     5    159.2     7.2    999.0   0.00  
  57    3:30    0.0    55   41.5     6    153.3     7.2    999.0   0.00  
  57    3:40    0.0    56   40.9     6    146.2     7.2    999.0   0.00  
  57    3:50    0.0    56   41.1     5    102.4     6.6    999.0   0.00  
  57    4:00    0.0    55   41.7     6     92.7     7.8    999.0   0.00  
  57    4:10    0.0    55   41.8     6     76.4     7.8    999.0   0.00  
  57    4:20    0.0    55   42.1     5     91.7     6.6    999.0   0.00  
  57    4:30    0.0    55   42.1     5    130.2     6.6    999.0   0.00  
  57    4:40    0.0    54   48.0     4    137.6     6.0    999.0   0.00  
  57    4:50    0.0    55   41.2     4    138.5     4.8    999.0   0.00  
  57    5:00    0.0    55   43.1     4    153.3     4.8    999.0   0.00  
  57    5:10    0.0    53   63.0     4    192.5     6.0    999.0   0.00  
  57    5:20    0.0    51   76.7     6    161.8     8.4    999.0   0.00  
  57    5:30    0.0    54   47.1     6    171.4     7.2    999.0   0.00  
  57    5:40    0.0    52   73.4     6    196.6     8.4    999.0   0.00  
  57    5:50    0.0    51   65.9     5    190.4     7.8    999.0   0.00  
  57    6:00    0.0    54   46.2     2    315.3     3.6    999.0   0.00  
  57    6:10    0.0    55   44.1     2    308.5     4.8    999.0   0.00  
  57    6:20    1.0    55   48.7     4    294.8     6.0    999.0   0.00  
  57    6:30    5.0    52   65.8     5    224.9     6.6    999.0   0.00  
  57    6:40   20.0    52   66.1     5    218.7     6.0    999.0   0.00  
  57    6:50   40.0    52   69.9     3    234.5     5.4    999.0   0.00  
  57    7:00   58.0    54   52.8     1    224.5     3.0    999.0   0.00  
  57    7:10   96.0    55   45.7     4     27.0     6.0    999.0   0.00  
  57    7:20  138.0    56   44.7     6     25.7     6.6    999.0   0.00  
  57    7:30  168.0    56   46.0     4     23.5     6.0    999.0   0.00  
  57    7:40  203.0    55   64.0     2    206.4     5.4    999.0   0.00  
  57    7:50  241.0    56   61.1     4     75.1     5.4    999.0   0.00  
  57    8:00  270.0    58   58.2     3     99.7     4.2    999.0   0.00  
  57    8:10  303.0    57   64.7     4     68.6     5.4    999.0   0.00  
  57    8:20  342.0    56   71.3     6     72.4     7.8    999.0   0.00  
  57    8:30  372.0    56   69.5     5     77.0     7.2    999.0   0.00  
  57    8:40  407.0    58   70.1     3    115.6     7.2    999.0   0.00  
  57    8:50  440.0    59   73.0     4    106.5     7.8    999.0   0.00  
  57    9:00  476.0    59   75.4     4    122.2     6.6    999.0   0.00  
  57    9:10  497.0    55   83.4     6     40.9     9.0    999.0   0.00  
  57    9:20  530.0    54   88.3     7     30.8    11.3    999.0   0.00  
  57    9:30  565.0    56   85.1     4     85.0     7.2    999.0   0.00  
  57    9:40  590.0    56   85.4     4     19.7     7.8    999.0   0.00  
  57    9:50  607.0    58   83.4     2     34.9     4.2    999.0   0.00  
  57   10:00  664.0    57   84.9     3     50.0     5.4    999.0   0.00  
  57   10:10  663.0    56   86.4     6     26.9     8.4    999.0   0.00  
  57   10:20  557.0    56   88.5     4     33.1     8.4    999.0   0.00  
  57   10:30  623.0    59   80.9     5    209.6     8.4    999.0   0.00  
  57   10:40  741.0    57   84.2     6     29.4     8.4    999.0   0.00  
  57   10:50  590.0    55   86.1     9     26.0    14.3    999.0   0.00  
  57   11:00  663.0    55   86.3     7     28.4    11.3    999.0   0.00  
  57   11:10  427.0    55   87.6     5     45.0    11.3    999.0   0.00  
  57   11:20  430.0    57   86.4     4     46.4     6.6    999.0   0.00  
  57   11:30  382.0    58   83.6     3    185.0     6.6    999.0   0.00  
  57   11:40  699.0    59   81.6     4    205.8     8.4    999.0   0.00  
  57   11:50  794.0    62   78.7     3    183.8     9.0    999.0   0.00  
  57   12:00  784.0    61   76.1     7    208.5    15.5    999.0   0.00  
  57   12:10  671.0    60   79.6    12    216.7    16.7    999.0   0.00  
  57   12:20  711.0    60   79.2     5    206.8     9.6    999.0   0.00  
  57   12:30  472.0    59   80.7     5    213.6     7.8    999.0   0.00  
  57   12:40  441.0    59   81.7     6    218.0     9.0    999.0   0.00  
  57   12:50  418.0    59   81.3     5    209.4     8.4    999.0   0.00  
  57   13:00  541.0    58   83.5     5    208.5     7.8    999.0   0.00  
  57   13:10  704.0    61   80.3     3    228.7     7.2    999.0   0.00  
  57   13:20  598.0    61   77.0     4    240.6     7.2    999.0   0.00  
  57   13:30  448.0    58   82.7     5     27.5     7.2    999.0   0.00  
  57   13:40  311.0    55   87.8     5     15.0     7.8    999.0   0.00  
  57   13:50  390.0    55   89.4     3     18.9     6.0    999.0   0.00  
  57   14:00  492.0    56   88.8     4      7.9     6.6    999.0   0.00  
  57   14:10  634.0    57   88.0     2    316.1     4.8    999.0   0.00  
  57   14:20  707.0    60   83.6     3    238.8     7.2    999.0   0.00  
  57   14:30  691.0    62   77.3     2    220.8     4.8    999.0   0.00  
  57   14:40  689.0    64   73.5     3    192.7     5.4    999.0   0.00  
  57   14:50  608.0    64   73.0     4    220.5     7.8    999.0   0.00  
  57   15:00  573.0    64   73.4     3    204.9     6.0    999.0   0.00  
  57   15:10  543.0    63   73.3     2    204.5     4.2    999.0   0.00  
  57   15:20  487.0    63   74.4     3    205.3     6.6    999.0   0.00  
  57   15:30  363.0    62   75.4     7    212.1     9.6    999.0   0.00  
  57   15:40  409.0    62   76.2     6    216.3    10.2    999.0   0.00  
  57   15:50  366.0    61   76.0     6    209.0    10.2    999.0   0.00  
  57   16:00  330.0    60   77.8     6    218.3     9.6    999.0   0.00  
  57   16:10  320.0    61   78.4     5    216.4     9.6    999.0   0.00  
  57   16:20  237.0    59   80.8     9    218.8    13.1    999.0   0.00  

Return to Silver Peak Trail graphs page.


Western Regional Climate Center,wrcc@dri.edu